Terminal Aerodrome Forecast
Issued by NWS Portland, OR

Home | Current Version | Previous Version | Text Only | Print | Product List | Glossary On
Versions: 1 2 3 4 5 6 7 8 9 10 11 12 13 14 15 16 17 18 19 20 21 22 23 24 25 26 27 28 29 30 31 32 33 34 35 36 37 38 39 40 41 42 43 44 45
000
FTUS46 KPQR 270221 AAA
TAFAST
TAF AMD
KAST 270221Z 2702/2724 VRB03KT P6SM -RA SCT007 OVC050
     FM270400 25005KT P6SM -RA FEW008 BKN015 OVC025
     FM270700 25007KT 3SM -RA BR BKN007 BKN015
     FM271200 25005KT P6SM OVC025
     FM271500 23004KT 4SM BR OVC015=

USA.gov is the U.S. government's official web portal to all federal, state and local government web resources and services.